Time;durP1;ratioP1;P1;durP2;ratioP2;P2;SDS_P1;SDS_P2;PMS_P1;PMS_P2;Temp;Humidity;BMP_temperature;BMP_pressure;BME280_temperature;BME280_humidity;BME280_pressure;Samples;Min_cycle;Max_cycle;Signal;HPM_P1;HPM_P2
2022/07/05 00:01:11;;;;;;;3.17;1.77;;;20.40;56.50;;;23.02;43.59;101946.16;5092420;28;20215;-63
2022/07/05 00:03:39;;;;;;;2.03;1.83;;;20.40;56.70;;;22.98;43.66;101936.91;5093560;28;20204;-62
2022/07/05 00:06:06;;;;;;;2.37;1.67;;;20.30;56.80;;;22.95;43.44;101943.56;5093356;28;20261;-63
2022/07/05 00:08:34;;;;;;;3.23;1.70;;;20.20;56.70;;;22.89;43.53;101942.59;5093659;28;20557;-63
2022/07/05 00:11:01;;;;;;;3.23;1.97;;;20.20;56.70;;;22.84;43.77;101953.19;5093477;28;20208;-62
2022/07/05 00:13:29;;;;;;;2.27;1.63;;;20.20;57.00;;;22.79;44.13;101941.50;5093396;28;20584;-61
2022/07/05 00:15:57;;;;;;;3.27;1.83;;;20.10;57.70;;;22.72;44.04;101941.59;5093454;28;20642;-64
2022/07/05 00:18:25;;;;;;;2.27;1.70;;;20.10;57.30;;;22.67;44.29;101932.56;5092214;28;20197;-64
2022/07/05 00:20:52;;;;;;;1.93;1.73;;;20.00;58.00;;;22.63;44.48;101937.53;5092683;28;20203;-63
2022/07/05 00:23:20;;;;;;;5.00;2.33;;;19.90;57.50;;;22.62;44.78;101937.78;5093669;28;20212;-64
2022/07/05 00:25:47;;;;;;;3.23;1.70;;;19.90;57.80;;;22.57;44.08;101932.22;5093302;28;20201;-63
2022/07/05 00:28:15;;;;;;;2.47;1.93;;;19.90;57.70;;;22.50;44.52;101929.63;5093236;28;20195;-63
2022/07/05 00:30:42;;;;;;;1.63;1.53;;;19.80;57.80;;;22.47;44.63;101938.09;5093115;28;20192;-63
2022/07/05 00:33:11;;;;;;;1.97;1.80;;;19.80;58.00;;;22.46;44.51;101936.47;5098903;28;20196;-64
2022/07/05 00:35:38;;;;;;;2.17;1.87;;;19.80;58.00;;;22.42;44.82;101937.94;5093899;28;20200;-64
2022/07/05 00:38:06;;;;;;;2.60;2.20;;;19.70;58.20;;;22.39;44.61;101946.47;5093476;28;20192;-64
2022/07/05 00:40:34;;;;;;;2.90;1.97;;;19.70;58.10;;;22.37;44.40;101948.53;5093034;28;20196;-64
2022/07/05 00:43:01;;;;;;;2.70;2.20;;;19.60;58.10;;;22.34;44.89;101940.94;5093226;28;20674;-64
2022/07/05 00:45:29;;;;;;;2.17;1.83;;;19.60;58.20;;;22.32;45.24;101944.91;5093376;28;20183;-64
2022/07/05 00:47:56;;;;;;;2.10;1.87;;;19.60;58.40;;;22.31;44.92;101943.25;5093876;28;20192;-64
2022/07/05 00:50:25;;;;;;;4.53;2.37;;;19.60;59.20;;;22.30;44.89;101941.63;5093337;28;20189;-63
2022/07/05 00:52:56;;;;;;;2.73;1.87;;;19.60;58.70;;;22.31;44.68;101949.44;5092776;28;20216;-63
2022/07/05 00:55:23;;;;;;;3.77;1.67;;;19.60;58.60;;;22.29;45.34;101943.47;5093254;28;20661;-64
2022/07/05 00:57:52;;;;;;;3.90;2.37;;;19.60;58.70;;;22.30;45.03;101946.97;5093365;28;20189;-63
2022/07/05 01:00:19;;;;;;;4.37;2.20;;;19.60;58.60;;;22.27;45.36;101943.66;5093301;28;20581;-62
2022/07/05 01:02:46;;;;;;;2.57;2.13;;;19.60;58.70;;;22.28;45.24;101949.88;5094602;28;20218;-62
2022/07/05 01:05:14;;;;;;;4.60;1.87;;;19.60;59.30;;;22.27;44.97;101948.25;5097697;28;20216;-64
2022/07/05 01:07:43;;;;;;;3.10;1.70;;;19.50;58.70;;;22.23;45.14;101941.66;5112386;28;20188;-64
2022/07/05 01:10:10;;;;;;;4.10;2.03;;;19.50;59.00;;;22.23;45.41;101941.66;5097087;28;20196;-64
2022/07/05 01:12:39;;;;;;;3.73;2.27;;;19.50;58.90;;;22.23;45.48;101947.03;5096415;28;20208;-64
2022/07/05 01:15:08;;;;;;;1.87;1.70;;;19.50;59.00;;;22.23;45.66;101947.03;5097260;28;20189;-63
2022/07/05 01:17:37;;;;;;;2.20;2.00;;;19.50;59.10;;;22.23;45.37;101941.66;5097241;28;20192;-64
2022/07/05 01:20:06;;;;;;;6.43;2.10;;;19.50;58.80;;;22.21;45.74;101941.06;5096314;28;20195;-64
2022/07/05 01:22:53;;;;;;;2.67;2.10;;;19.50;59.00;;;22.12;45.18;101937.84;5096239;28;20223;-64
2022/07/05 01:25:22;;;;;;;4.17;1.87;;;19.50;58.80;;;22.12;45.46;101939.72;5096027;28;20223;-64
2022/07/05 01:27:51;;;;;;;2.10;1.80;;;19.50;59.10;;;22.11;45.70;101928.16;5096283;28;20192;-64
2022/07/05 01:30:19;;;;;;;4.47;2.53;;;19.50;59.40;;;22.15;46.08;101936.59;5096186;28;20188;-64
2022/07/05 01:32:46;;;;;;;4.37;2.37;;;19.40;59.30;;;22.16;46.12;101931.00;5095735;28;20204;-65
2022/07/05 01:35:23;;;;;;;2.70;2.10;;;19.40;59.40;;;22.14;46.19;101937.63;5095166;28;20201;-63
2022/07/05 01:37:52;;;;;;;4.30;2.50;;;19.50;59.50;;;22.14;45.78;101938.47;5095983;28;20223;-64
2022/07/05 01:40:20;;;;;;;2.60;2.40;;;19.50;59.30;;;22.12;45.36;101928.97;5095800;28;20189;-64
2022/07/05 01:42:48;;;;;;;3.37;2.20;;;19.40;59.20;;;22.12;46.18;101935.19;5095029;28;20571;-64
2022/07/05 01:45:38;;;;;;;3.70;2.30;;;19.40;59.40;;;22.11;45.72;101938.88;5096066;28;20216;-62
2022/07/05 01:48:08;;;;;;;4.47;2.40;;;19.40;59.40;;;22.04;45.56;101927.41;5096037;28;20584;-64
2022/07/05 01:50:47;;;;;;;2.97;2.10;;;19.40;59.80;;;21.97;45.81;101931.19;5095630;28;20199;-64
2022/07/05 01:53:19;;;;;;;2.40;2.20;;;19.40;59.30;;;21.94;45.99;101926.28;5096349;28;20249;-65
2022/07/05 01:55:47;;;;;;;3.03;2.30;;;19.30;59.40;;;21.90;45.61;101928.56;5096232;28;20189;-63
2022/07/05 01:58:14;;;;;;;3.13;2.10;;;19.20;59.30;;;21.85;46.22;101922.22;5095932;28;20538;-63
2022/07/05 02:00:45;;;;;;;4.37;2.40;;;19.20;59.40;;;21.78;45.96;101943.69;5095263;28;20658;-64
2022/07/05 02:03:14;;;;;;;3.73;2.47;;;19.10;59.40;;;21.71;46.17;101936.72;5095863;28;20180;-64
2022/07/05 02:05:44;;;;;;;2.80;2.53;;;19.10;59.70;;;21.65;45.92;101937.63;5095938;28;20212;-64
2022/07/05 02:08:12;;;;;;;2.63;2.07;;;19.00;59.80;;;21.61;46.62;101931.06;5095823;28;20195;-63
2022/07/05 02:10:42;;;;;;;2.63;2.33;;;19.00;60.10;;;21.57;46.28;101936.84;5095130;28;20200;-63
2022/07/05 02:13:11;;;;;;;3.07;2.50;;;19.00;60.10;;;21.53;46.41;101929.47;5095020;28;20192;-63
2022/07/05 02:15:40;;;;;;;2.73;2.53;;;18.90;60.10;;;21.47;46.41;101924.94;5094774;28;20185;-64
2022/07/05 02:18:09;;;;;;;4.27;2.30;;;18.80;60.30;;;21.41;46.90;101926.66;5095551;28;20207;-64
2022/07/05 02:20:40;;;;;;;5.17;2.70;;;18.70;60.20;;;21.36;46.48;101931.84;5094825;28;20192;-63
2022/07/05 02:23:08;;;;;;;4.43;2.60;;;18.70;60.60;;;21.33;46.50;101928.75;5095120;28;20192;-65
2022/07/05 02:25:36;;;;;;;3.57;2.70;;;18.70;60.80;;;21.30;46.81;101932.69;5095016;28;20222;-63
2022/07/05 02:28:05;;;;;;;4.03;2.80;;;18.60;61.00;;;21.29;46.87;101932.91;5095059;28;20191;-63
2022/07/05 02:30:32;;;;;;;5.80;3.40;;;18.60;61.30;;;21.25;47.33;101937.88;5094262;28;20197;-63
2022/07/05 02:33:00;;;;;;;3.10;2.77;;;18.60;61.60;;;21.16;47.52;101935.66;5094829;28;20233;-63
2022/07/05 02:35:27;;;;;;;3.87;2.73;;;18.60;61.40;;;21.14;47.93;101941.25;5095120;28;20196;-63
2022/07/05 02:37:54;;;;;;;2.37;2.27;;;18.60;61.40;;;21.15;48.21;101936.72;5095021;28;20211;-63
2022/07/05 02:40:22;;;;;;;4.17;2.83;;;18.60;62.00;;;21.19;47.88;101941.41;5094894;28;20619;-63
2022/07/05 02:42:49;;;;;;;2.63;2.43;;;18.60;61.70;;;21.24;47.54;101935.41;5095165;28;20212;-64
2022/07/05 02:45:18;;;;;;;3.23;2.93;;;18.60;61.60;;;21.26;47.72;101933.34;5095063;28;20662;-63
2022/07/05 02:47:45;;;;;;;4.03;2.40;;;18.60;61.30;;;21.24;47.50;101930.88;5094195;28;20577;-64
2022/07/05 02:50:12;;;;;;;3.77;2.30;;;18.60;60.90;;;21.22;46.84;101938.31;5094388;28;20200;-64
2022/07/05 02:52:40;;;;;;;2.73;2.53;;;18.60;60.70;;;21.22;47.61;101938.31;5094265;28;20219;-64
2022/07/05 02:55:08;;;;;;;3.67;2.60;;;18.60;61.00;;;21.20;47.62;101942.25;5094677;28;20196;-64
2022/07/05 02:57:37;;;;;;;2.90;2.30;;;18.60;60.80;;;21.13;46.97;101949.50;5094842;28;20663;-64
2022/07/05 03:00:07;;;;;;;3.83;2.60;;;18.50;61.00;;;21.06;46.88;101949.50;5094339;28;20193;-64
2022/07/05 03:02:35;;;;;;;4.63;2.80;;;18.50;60.90;;;20.98;46.96;101949.75;5094533;28;20685;-63
2022/07/05 03:05:03;;;;;;;3.63;3.00;;;18.40;61.00;;;20.91;47.33;101948.94;5095040;28;20213;-63
2022/07/05 03:07:31;;;;;;;3.90;3.50;;;18.30;61.10;;;20.84;47.50;101956.19;5094779;28;20291;-64
2022/07/05 03:09:58;;;;;;;3.23;3.00;;;18.20;61.30;;;20.80;47.51;101954.97;5110691;28;20192;-64
2022/07/05 03:12:26;;;;;;;4.47;3.00;;;18.10;61.50;;;20.76;48.00;101954.56;5094486;28;20208;-64
2022/07/05 03:14:53;;;;;;;5.50;3.20;;;18.10;61.70;;;20.70;47.68;101949.25;5094920;28;20724;-63
2022/07/05 03:17:21;;;;;;;3.80;3.37;;;18.10;61.80;;;20.66;47.52;101956.03;5094185;28;20199;-64
2022/07/05 03:19:49;;;;;;;4.23;2.63;;;18.00;61.70;;;20.61;48.17;101951.31;5093334;28;20218;-64
2022/07/05 03:22:17;;;;;;;3.30;3.00;;;17.90;62.00;;;20.59;47.93;101953.38;5094064;28;20263;-63
2022/07/05 03:24:44;;;;;;;5.53;2.87;;;17.90;63.10;;;20.57;48.04;101951.94;5094713;28;20213;-64
2022/07/05 03:27:12;;;;;;;5.93;3.10;;;17.90;62.60;;;20.53;48.15;101954.22;5093068;28;20188;-64
2022/07/05 03:29:45;;;;;;;2.70;2.50;;;17.80;62.60;;;20.52;47.99;101959.78;5093974;28;20210;-64
2022/07/05 03:32:12;;;;;;;9.67;3.67;;;17.80;62.60;;;20.53;48.70;101948.06;5093178;28;20212;-64
2022/07/05 03:34:40;;;;;;;3.90;3.03;;;17.80;63.30;;;20.55;48.26;101954.00;5094087;28;20191;-64
2022/07/05 03:37:09;;;;;;;3.33;3.00;;;17.80;63.10;;;20.58;48.35;101940.22;5093139;28;20200;-63
2022/07/05 03:39:36;;;;;;;5.73;3.33;;;17.80;63.10;;;20.60;48.46;101948.84;5092112;28;20203;-64
2022/07/05 03:42:05;;;;;;;4.37;3.03;;;17.90;63.10;;;20.62;48.17;101952.13;5092828;28;20291;-63
2022/07/05 03:44:33;;;;;;;3.10;2.90;;;17.80;63.10;;;20.62;48.37;101952.13;5093789;28;20295;-63
2022/07/05 03:47:00;;;;;;;3.50;3.20;;;17.90;63.20;;;20.62;48.48;101957.50;5093714;28;20185;-63
2022/07/05 03:49:27;;;;;;;4.17;3.20;;;17.90;63.20;;;20.62;47.99;101960.16;5093763;28;20192;-63
2022/07/05 03:51:55;;;;;;;3.13;2.93;;;17.90;63.10;;;20.62;48.40;101957.50;5093233;28;20218;-64
2022/07/05 03:54:23;;;;;;;3.70;3.37;;;17.90;63.30;;;20.60;48.61;101959.56;5096853;28;20192;-64
2022/07/05 03:56:51;;;;;;;4.50;3.00;;;17.80;63.00;;;20.60;48.19;101962.22;5093844;28;20282;-63
2022/07/05 03:59:18;;;;;;;5.73;3.60;;;17.80;63.20;;;20.57;48.08;101960.78;5093667;28;20276;-63
2022/07/05 04:01:45;;;;;;;4.90;3.23;;;17.80;63.20;;;20.57;48.73;101959.97;5093041;28;20240;-65
2022/07/05 04:04:13;;;;;;;4.20;3.00;;;17.80;63.50;;;20.56;48.64;101963.69;5093439;28;20281;-63
2022/07/05 04:06:41;;;;;;;4.70;2.93;;;17.80;63.50;;;20.57;48.74;101965.31;5093138;28;20200;-63
2022/07/05 04:09:08;;;;;;;3.30;2.87;;;17.80;64.40;;;20.58;48.73;101966.97;5093283;28;20603;-64
2022/07/05 04:11:37;;;;;;;5.07;3.27;;;17.80;64.10;;;20.58;48.71;101980.34;5091903;28;20302;-64
2022/07/05 04:14:04;;;;;;;3.33;2.83;;;17.80;63.50;;;20.55;48.25;101978.91;5093672;28;20189;-63
2022/07/05 04:16:32;;;;;;;3.47;3.00;;;17.80;63.30;;;20.53;48.26;101980.16;5093476;28;20191;-64
2022/07/05 04:18:59;;;;;;;3.33;2.83;;;17.80;63.20;;;20.49;48.30;101978.94;5092509;28;20206;-64
2022/07/05 04:21:26;;;;;;;3.50;3.17;;;17.80;63.20;;;20.44;48.33;101986.75;5094057;28;20216;-64
2022/07/05 04:23:54;;;;;;;6.70;3.53;;;17.70;63.20;;;20.39;48.36;101978.53;5094241;28;20188;-64
2022/07/05 04:26:21;;;;;;;3.43;2.80;;;17.70;63.00;;;20.36;48.45;101978.94;5093413;28;20307;-65
2022/07/05 04:28:50;;;;;;;2.83;2.53;;;17.70;63.20;;;20.34;48.77;101970.31;5093703;28;20222;-64
2022/07/05 04:31:23;;;;;;;2.73;2.53;;;17.60;63.30;;;20.33;48.77;101977.50;5093182;28;20204;-64
2022/07/05 04:33:51;;;;;;;7.17;3.07;;;17.60;63.30;;;20.36;48.85;101979.78;5092884;28;20192;-64
2022/07/05 04:36:18;;;;;;;2.77;2.57;;;17.60;63.60;;;20.39;49.02;101982.03;5092969;28;20188;-65
2022/07/05 04:38:45;;;;;;;3.97;3.13;;;17.60;63.80;;;20.45;48.59;101975.84;5097077;28;20184;-63
2022/07/05 04:41:13;;;;;;;3.37;2.37;;;17.60;64.10;;;20.50;48.93;101977.88;5096592;28;20211;-62
2022/07/05 04:43:40;;;;;;;3.50;2.83;;;17.60;63.80;;;20.54;48.38;101987.16;5097794;28;20193;-64
2022/07/05 04:46:09;;;;;;;3.27;2.60;;;17.70;63.70;;;20.56;48.10;101985.09;5098112;28;20213;-64
2022/07/05 04:48:36;;;;;;;4.53;3.10;;;17.70;63.40;;;20.59;48.10;101990.00;5098538;28;20240;-64
2022/07/05 04:51:04;;;;;;;5.50;2.47;;;17.70;63.40;;;20.63;48.47;101991.25;5097460;28;20226;-64
2022/07/05 04:53:31;;;;;;;8.10;3.27;;;17.80;63.40;;;20.67;47.99;101992.47;5098872;28;20211;-64
2022/07/05 04:55:58;;;;;;;2.83;2.57;;;17.80;63.10;;;20.71;47.73;101993.69;5098548;28;20208;-63
2022/07/05 04:58:26;;;;;;;2.93;2.17;;;17.90;63.10;;;20.73;48.22;101997.81;5098245;28;20271;-64
2022/07/05 05:00:53;;;;;;;8.47;2.80;;;17.90;62.80;;;20.79;47.67;102004.16;5096481;28;20195;-63
2022/07/05 05:03:22;;;;;;;4.50;2.90;;;17.90;62.60;;;20.82;47.36;101998.41;5096759;28;20236;-64
2022/07/05 05:05:49;;;;;;;4.40;2.47;;;18.00;62.50;;;20.86;47.67;102003.13;5095987;28;20213;-63
2022/07/05 05:08:17;;;;;;;3.13;2.70;;;18.00;62.40;;;20.90;47.36;101995.47;5095666;28;20197;-67
2022/07/05 05:10:44;;;;;;;6.30;2.70;;;18.00;62.30;;;20.93;47.10;101998.56;5095759;28;20188;-65
2022/07/05 05:13:11;;;;;;;5.03;2.53;;;18.10;62.00;;;20.97;47.25;101993.59;5096298;28;20195;-65
2022/07/05 05:15:39;;;;;;;2.97;2.30;;;18.10;61.80;;;21.02;46.90;101995.63;5095767;28;20192;-63
2022/07/05 05:18:06;;;;;;;3.80;2.60;;;18.20;61.80;;;21.09;46.80;102002.66;5095174;28;20196;-64
2022/07/05 05:20:35;;;;;;;3.67;2.80;;;18.20;61.60;;;21.17;46.86;101988.19;5095021;28;20594;-64
2022/07/05 05:23:07;;;;;;;2.80;2.60;;;18.30;61.60;;;21.25;46.71;102002.16;5096221;28;20631;-64
2022/07/05 05:25:35;;;;;;;3.40;2.00;;;18.40;61.60;;;21.33;46.87;102004.59;5096469;28;20716;-64
2022/07/05 05:28:03;;;;;;;4.60;2.20;;;18.50;61.10;;;21.37;46.50;101999.66;5095457;28;20196;-65
2022/07/05 05:30:31;;;;;;;2.80;2.40;;;18.50;60.40;;;21.39;46.23;102003.75;5094708;28;20214;-65
2022/07/05 05:32:58;;;;;;;2.83;2.27;;;18.50;59.90;;;21.37;45.55;102000.44;5076672;28;20232;-64
2022/07/05 05:35:25;;;;;;;2.33;1.97;;;18.60;59.80;;;21.39;45.38;102002.94;5095622;28;20510;-64
2022/07/05 05:37:56;;;;;;;3.63;2.30;;;18.60;59.40;;;21.39;45.34;102001.09;5095613;28;20188;-65
2022/07/05 05:40:25;;;;;;;3.57;2.70;;;18.60;60.00;;;21.41;45.27;102006.22;5095310;28;20619;-64
2022/07/05 05:42:55;;;;;;;2.63;2.43;;;18.60;59.40;;;21.44;45.15;102000.44;5094833;28;20255;-64
2022/07/05 05:45:23;;;;;;;2.83;2.23;;;18.60;59.20;;;21.50;45.48;102004.91;5095414;28;20212;-67
2022/07/05 05:47:53;;;;;;;5.47;2.87;;;18.60;59.20;;;21.52;45.06;102009.03;5095519;28;20508;-65
2022/07/05 05:50:22;;;;;;;4.80;2.27;;;18.70;59.30;;;21.54;44.84;102016.84;5093731;28;20193;-65
2022/07/05 05:52:50;;;;;;;3.50;2.17;;;18.70;59.00;;;21.53;45.22;102005.31;5094857;28;20220;-65
2022/07/05 05:55:21;;;;;;;4.97;2.50;;;18.70;59.00;;;21.55;44.71;102018.50;5094638;28;20211;-64
2022/07/05 05:57:49;;;;;;;5.23;2.83;;;18.70;59.00;;;21.58;45.36;102024.22;5094768;28;20263;-64
2022/07/05 06:00:18;;;;;;;3.33;2.70;;;18.70;59.20;;;21.65;45.02;102023.38;5094448;28;20355;-65
2022/07/05 06:02:48;;;;;;;3.17;1.83;;;18.80;59.10;;;21.69;44.84;102024.59;5094313;28;20208;-63
2022/07/05 06:05:17;;;;;;;3.27;2.10;;;18.80;59.00;;;21.73;44.66;102020.47;5094607;28;20289;-64
2022/07/05 06:07:50;;;;;;;3.90;2.20;;;18.90;58.90;;;21.77;44.99;102013.63;5094422;27;20219;-65
2022/07/05 06:10:22;;;;;;;2.50;2.00;;;18.90;58.90;;;21.85;45.05;102019.56;5099122;28;20621;-64
2022/07/05 06:12:51;;;;;;;3.77;2.30;;;18.90;58.80;;;21.96;44.49;102012.69;5094139;28;20212;-64
2022/07/05 06:15:20;;;;;;;3.33;1.90;;;19.00;58.80;;;22.07;44.78;102028.06;5091754;28;20639;-64
2022/07/05 06:17:48;;;;;;;4.03;2.07;;;19.10;58.80;;;22.19;44.54;102034.38;5097180;27;20213;-64
2022/07/05 06:20:18;;;;;;;1.80;1.70;;;19.20;58.70;;;22.30;44.46;102038.22;5092789;28;20295;-64
2022/07/05 06:22:47;;;;;;;2.90;1.87;;;19.30;58.60;;;22.37;43.74;102029.03;5078549;28;20290;-64
2022/07/05 06:25:14;;;;;;;3.17;1.60;;;19.40;58.40;;;22.47;44.14;102033.91;5094736;28;20223;-65
2022/07/05 06:27:55;;;;;;;2.97;1.60;;;19.50;58.30;;;22.52;43.42;102032.19;5094184;27;20247;-64
2022/07/05 06:30:25;;;;;;;2.20;1.83;;;19.60;58.00;;;22.58;43.80;102028.63;5095219;28;20196;-63
2022/07/05 06:32:53;;;;;;;4.43;1.77;;;19.70;57.70;;;22.63;43.16;102033.38;5091243;28;20258;-65
2022/07/05 06:35:22;;;;;;;1.90;1.70;;;19.70;57.60;;;22.70;43.38;102034.13;5094697;28;20504;-64
2022/07/05 06:37:53;;;;;;;2.07;1.87;;;19.80;57.40;;;22.78;43.03;102039.19;5107512;28;20631;-64
2022/07/05 06:40:23;;;;;;;1.97;1.57;;;19.80;57.20;;;22.86;43.13;102047.78;5104371;28;20188;-64
2022/07/05 06:42:53;;;;;;;1.90;1.40;;;19.90;57.60;;;22.92;42.80;102038.81;5094897;28;20664;-64
2022/07/05 06:45:21;;;;;;;2.83;1.67;;;20.00;56.70;;;23.02;42.58;102043.69;5109293;28;20215;-64
2022/07/05 06:47:55;;;;;;;2.70;1.73;;;20.10;56.60;;;23.11;42.04;102046.88;5099796;28;20271;-65
2022/07/05 06:50:30;;;;;;;5.40;1.93;;;20.10;56.10;;;23.19;42.11;102046.56;5111430;28;20274;-64
2022/07/05 06:53:25;;;;;;;2.67;1.47;;;20.20;56.00;;;23.20;42.19;102045.53;5094861;28;20192;-67
2022/07/05 06:55:56;;;;;;;1.60;1.10;;;20.30;55.70;;;23.25;41.90;102038.44;5093051;28;20292;-65
2022/07/05 06:58:25;;;;;;;2.30;1.40;;;20.30;55.60;;;23.31;41.65;102042.09;5097523;28;20776;-64
2022/07/05 07:00:58;;;;;;;1.37;1.20;;;20.40;55.40;;;23.38;41.78;102037.47;5098185;28;20194;-65
2022/07/05 07:03:47;;;;;;;3.23;1.33;;;20.50;55.60;;;23.47;41.65;102036.94;5094397;27;20205;-64
2022/07/05 07:06:46;;;;;;;2.53;1.30;;;20.50;55.60;;;23.57;41.91;102039.06;5094497;28;20362;-64
2022/07/05 07:09:20;;;;;;;6.20;1.60;;;20.60;55.30;;;23.67;41.63;102031.28;5099591;28;20193;-65
2022/07/05 07:11:49;;;;;;;1.70;1.20;;;20.80;55.10;;;23.72;40.83;102042.19;5100962;28;20620;-65
2022/07/05 07:14:18;;;;;;;1.63;1.50;;;20.80;54.70;;;23.80;40.89;102036.44;5090881;28;20204;-64
2022/07/05 07:16:45;;;;;;;4.63;1.50;;;20.80;54.70;;;23.91;40.96;102037.53;5092234;28;20249;-65
2022/07/05 07:19:16;;;;;;;2.57;1.40;;;20.90;54.70;;;24.02;40.72;102045.63;5091526;28;20631;-64
2022/07/05 07:21:43;;;;;;;1.83;1.40;;;21.00;54.20;;;24.08;40.15;102050.09;5098475;28;20253;-63
2022/07/05 07:24:11;;;;;;;4.87;1.30;;;21.10;53.70;;;24.14;40.25;102048.38;5093786;27;20215;-64
2022/07/05 07:29:27;;;;;;;1.97;1.40;;;21.30;53.20;;;24.27;38.98;102047.34;5092829;28;20193;-66
2022/07/05 07:31:58;;;;;;;1.70;1.60;;;21.30;52.50;;;24.30;39.00;102053.06;5093063;28;20210;-65
2022/07/05 07:34:28;;;;;;;4.63;1.90;;;21.40;52.40;;;24.35;39.71;102052.38;5096494;27;20216;-64
2022/07/05 07:36:56;;;;;;;1.47;1.37;;;21.50;52.50;;;24.39;39.29;102051.66;5110639;28;20259;-64
2022/07/05 07:39:26;;;;;;;3.30;1.53;;;21.50;52.10;;;24.47;38.47;102055.88;5095850;28;20192;-65
2022/07/05 07:41:52;;;;;;;2.40;1.50;;;21.50;51.80;;;24.57;38.47;102050.75;5100044;28;20207;-62
2022/07/05 07:44:32;;;;;;;2.43;1.10;;;21.60;51.80;;;24.60;38.52;102058.34;5111995;28;20198;-64
2022/07/05 07:47:01;;;;;;;2.00;1.37;;;21.70;51.00;;;24.70;38.20;102053.19;5071404;28;20224;-62
2022/07/05 07:49:56;;;;;;;3.20;1.33;;;21.80;50.70;;;24.69;37.58;102046.16;5093714;28;20204;-63
2022/07/05 07:52:40;;;;;;;1.50;1.40;;;21.90;50.20;;;24.78;37.65;102055.56;5113070;27;20230;-64
2022/07/05 07:55:09;;;;;;;5.57;2.00;;;22.00;50.40;;;24.86;37.34;102042.53;5099450;28;20314;-64
2022/07/05 07:57:38;;;;;;;3.17;1.10;;;22.00;49.30;;;24.93;36.53;102039.72;5097856;28;20188;-65
2022/07/05 08:00:17;;;;;;;1.90;1.20;;;22.00;49.00;;;25.00;36.63;102047.66;5096606;27;20234;-66
2022/07/05 08:02:59;;;;;;;3.40;1.47;;;22.10;48.50;;;25.08;36.53;102052.72;5067518;28;20227;-64
2022/07/05 08:05:27;;;;;;;1.97;1.23;;;22.20;48.60;;;25.16;36.24;102053.13;5099498;28;20206;-64
2022/07/05 08:07:54;;;;;;;1.30;1.20;;;22.20;48.10;;;25.21;36.02;102045.16;5094993;28;20199;-64
2022/07/05 08:10:21;;;;;;;3.10;1.60;;;22.30;48.70;;;25.30;35.78;102059.06;5103704;27;20195;-64
2022/07/05 08:12:49;;;;;;;2.30;1.20;;;22.30;47.70;;;25.42;35.25;102066.06;5126977;27;20567;-64
2022/07/05 08:15:19;;;;;;;1.60;1.50;;;22.40;46.70;;;25.40;34.89;102060.09;5079677;28;20195;-63
2022/07/05 08:21:30;;;;;;;2.90;1.20;;;22.60;46.20;;;25.47;34.64;102055.41;5083208;28;20529;-63
2022/07/05 08:21:37;;;;;;;2.60;1.20;;;22.60;46.40;;;25.97;34.37;102049.28;5092613;28;20212;-64
2022/07/05 08:23:30;;;;;;;2.33;1.10;;;22.70;46.60;;;27.38;31.88;102048.66;5071539;28;20229;-64
2022/07/05 08:26:11;;;;;;;1.87;1.20;;;23.10;44.40;;;28.60;29.43;102054.09;5091370;28;20946;-63
2022/07/05 08:28:39;;;;;;;2.57;1.40;;;23.60;42.50;;;29.75;27.94;102051.00;5101888;28;20195;-63
2022/07/05 08:31:30;;;;;;;4.90;1.40;;;24.30;42.10;;;30.75;26.58;102052.88;5090393;28;20221;-63
2022/07/05 08:34:03;;;;;;;2.03;1.40;;;25.20;40.00;;;31.93;26.23;102050.06;5090677;28;20250;-64
2022/07/05 08:37:08;;;;;;;2.17;1.97;;;25.90;39.30;;;33.21;23.87;102057.47;5108646;27;20227;-62
2022/07/05 08:39:42;;;;;;;2.00;1.17;;;26.90;36.70;;;34.37;21.98;102060.31;5093546;28;20256;-63
2022/07/05 08:42:11;;;;;;;2.40;1.10;;;27.70;33.30;;;35.08;19.76;102044.16;5090289;28;20216;-63
2022/07/05 08:44:42;;;;;;;2.07;0.70;;;28.40;29.80;;;35.90;19.38;102039.22;5093945;28;20193;-62
2022/07/05 08:47:12;;;;;;;1.77;1.03;;;29.10;30.00;;;36.56;19.45;102041.03;5092746;28;20215;-62
2022/07/05 08:49:40;;;;;;;1.10;1.00;;;29.80;29.50;;;36.78;19.24;102048.38;5097843;27;20199;-63
2022/07/05 08:52:14;;;;;;;1.60;1.00;;;30.30;28.50;;;37.04;17.61;102045.75;5092354;28;20215;-62
2022/07/05 08:54:45;;;;;;;2.37;1.30;;;30.70;26.90;;;37.51;17.66;102053.06;5091610;28;20284;-63
2022/07/05 08:57:14;;;;;;;1.27;1.07;;;31.00;26.10;;;38.10;17.17;102050.56;5110698;27;20257;-61
2022/07/05 08:59:42;;;;;;;1.20;1.10;;;31.40;26.10;;;38.28;16.69;102052.97;5074541;28;20697;-62
2022/07/05 09:02:16;;;;;;;5.20;1.40;;;31.60;26.00;;;37.61;17.61;102043.69;5075469;28;20231;-61
2022/07/05 09:04:45;;;;;;;1.53;1.23;;;31.90;25.60;;;37.80;17.78;102046.91;5092469;28;20196;-61
2022/07/05 09:07:20;;;;;;;3.28;1.23;;;32.00;25.70;;;37.95;17.47;102054.66;5094373;28;20255;-64
2022/07/05 09:09:51;;;;;;;1.00;0.90;;;32.10;25.50;;;37.38;17.37;102056.78;5096767;28;20554;-63
2022/07/05 09:12:19;;;;;;;1.80;1.10;;;32.10;25.40;;;37.15;17.61;102052.53;5092930;27;20224;-64
2022/07/05 09:14:52;;;;;;;1.10;1.00;;;31.90;25.10;;;36.76;18.17;102058.88;5096222;28;20339;-63
2022/07/05 09:17:22;;;;;;;6.10;4.73;;;31.80;25.60;;;35.92;17.98;102056.16;5096367;28;20253;-63
2022/07/05 09:20:10;;;;;;;1.20;1.10;;;31.60;25.20;;;35.81;18.95;102052.06;5096196;28;20267;-64
2022/07/05 09:22:56;;;;;;;2.00;1.30;;;31.20;25.70;;;36.61;18.59;102053.84;5091950;28;20204;-64
2022/07/05 09:25:27;;;;;;;2.00;1.23;;;31.10;26.20;;;37.53;17.73;102048.06;5094782;28;20204;-62
2022/07/05 09:27:57;;;;;;;1.47;1.37;;;31.30;26.60;;;38.34;17.02;102062.69;5093355;28;20201;-63
2022/07/05 09:30:31;;;;;;;1.83;1.30;;;31.60;26.10;;;38.54;16.55;102067.44;5095539;28;20208;-64
2022/07/05 09:33:08;;;;;;;1.55;1.45;;;32.00;25.30;;;37.33;16.63;102060.47;5114272;28;20298;-64
2022/07/05 09:35:37;;;;;;;1.60;1.10;;;32.10;24.00;;;36.16;17.56;102063.28;5114640;28;20184;-64
2022/07/05 09:38:16;;;;;;;1.50;1.10;;;31.80;24.30;;;35.08;19.20;102057.03;5114796;27;20194;-64
2022/07/05 09:40:48;;;;;;;1.30;1.20;;;31.30;24.90;;;34.20;19.82;102052.69;5097038;28;20196;-62
2022/07/05 09:43:18;;;;;;;3.00;2.00;;;30.80;25.60;;;33.51;20.49;102060.88;5102692;28;20196;-62
2022/07/05 09:45:55;;;;;;;2.07;1.40;;;30.30;26.30;;;32.82;21.69;102056.88;5101379;28;20668;-62
2022/07/05 09:48:25;;;;;;;1.43;1.03;;;29.70;27.00;;;32.23;21.66;102061.84;5093429;28;20196;-63
2022/07/05 09:51:09;;;;;;;1.70;1.20;;;29.20;27.70;;;31.57;23.12;102067.75;5108362;28;20277;-63
2022/07/05 09:53:59;;;;;;;2.50;1.37;;;28.70;28.50;;;31.47;23.40;102062.41;5099557;28;20196;-63
2022/07/05 09:56:44;;;;;;;1.33;1.10;;;28.20;29.30;;;32.18;22.53;102068.16;5106641;28;20219;-62
2022/07/05 09:59:18;;;;;;;1.30;1.20;;;28.00;29.60;;;32.15;21.99;102066.00;5090623;27;20578;-62
2022/07/05 10:01:47;;;;;;;4.97;1.20;;;28.00;29.70;;;31.88;22.47;102063.72;5092974;28;20219;-64
2022/07/05 10:04:16;;;;;;;0.83;0.70;;;28.00;29.60;;;31.48;22.59;102064.00;5092821;28;20298;-65
2022/07/05 10:06:44;;;;;;;2.27;1.20;;;27.80;29.90;;;31.06;23.39;102066.38;5093274;28;20223;-63
2022/07/05 10:09:14;;;;;;;3.37;1.50;;;27.60;29.80;;;30.70;24.10;102071.09;5092680;28;20207;-62
2022/07/05 10:11:44;;;;;;;1.87;1.33;;;27.40;30.20;;;30.39;24.01;102073.06;5093155;28;20261;-64
2022/07/05 10:14:17;;;;;;;2.30;1.23;;;27.20;30.80;;;30.10;24.48;102070.06;5092652;28;20192;-64
2022/07/05 10:16:53;;;;;;;1.67;1.27;;;26.90;31.10;;;30.19;25.04;102064.88;5092974;28;20192;-65
2022/07/05 10:19:28;;;;;;;2.80;1.70;;;26.80;31.70;;;30.37;24.48;102061.66;5092541;28;20257;-63
2022/07/05 10:21:56;;;;;;;1.60;1.07;;;26.70;32.30;;;30.30;24.56;102063.00;5091886;28;20212;-63
2022/07/05 10:24:45;;;;;;;1.93;1.30;;;26.70;32.50;;;30.09;25.44;102073.06;5091818;28;20234;-64
2022/07/05 10:27:14;;;;;;;3.30;1.40;;;26.60;32.80;;;30.19;24.98;102073.03;5091847;28;20204;-63
2022/07/05 10:29:43;;;;;;;2.23;1.40;;;26.50;33.00;;;30.48;25.34;102065.16;5091631;28;20192;-63